createdAt,value
2018-07-28T00:00:25.139Z,7.60
2018-07-28T00:00:57.887Z,7.85
2018-07-28T00:01:30.647Z,7.00
2018-07-28T00:02:03.403Z,7.20
2018-07-28T00:02:36.131Z,7.50
2018-07-28T00:03:08.738Z,6.90
2018-07-28T00:03:41.439Z,7.53
2018-07-28T00:04:14.202Z,6.65
2018-07-28T00:04:46.919Z,6.50
2018-07-28T00:05:19.650Z,7.60
2018-07-28T00:05:52.419Z,7.60
2018-07-28T00:06:25.354Z,7.00
2018-07-28T00:06:58.075Z,6.97
2018-07-28T00:07:30.782Z,7.42
2018-07-28T00:08:03.598Z,6.65
2018-07-28T00:08:36.331Z,7.78
2018-07-28T00:09:10.506Z,6.97
2018-07-28T00:09:43.246Z,7.22
2018-07-28T00:10:15.987Z,6.90
2018-07-28T00:10:48.671Z,6.10
2018-07-28T00:11:21.350Z,6.53
2018-07-28T00:11:54.083Z,6.33
2018-07-28T00:12:26.903Z,6.15
2018-07-28T00:12:59.622Z,6.28
2018-07-28T00:13:32.410Z,6.15
2018-07-28T00:14:05.599Z,5.72
2018-07-28T00:14:38.307Z,6.25
2018-07-28T00:15:11.939Z,6.97
2018-07-28T00:15:44.695Z,6.50
2018-07-28T00:16:17.466Z,6.78
2018-07-28T00:16:50.166Z,5.87
2018-07-28T00:17:22.918Z,5.65
2018-07-28T00:17:55.718Z,7.17
2018-07-28T00:18:28.374Z,6.55
2018-07-28T00:19:01.082Z,6.20
2018-07-28T00:19:33.808Z,5.70
2018-07-28T00:20:08.331Z,6.05
2018-07-28T00:20:41.065Z,6.53
2018-07-28T00:21:13.874Z,5.87
2018-07-28T00:21:46.618Z,6.40
2018-07-28T00:22:19.371Z,6.72
2018-07-28T00:22:51.983Z,6.20
2018-07-28T00:23:24.694Z,6.53
2018-07-28T00:23:57.434Z,6.50
2018-07-28T00:24:30.166Z,5.90
2018-07-28T00:25:02.942Z,6.15
2018-07-28T00:25:42.247Z,6.28
2018-07-28T00:26:17.543Z,6.40
2018-07-28T00:26:50.310Z,6.85
2018-07-28T00:27:22.994Z,6.08
2018-07-28T00:27:55.679Z,6.80
2018-07-28T00:28:28.409Z,6.80
2018-07-28T00:29:01.164Z,6.62
2018-07-28T00:29:33.882Z,6.08
2018-07-28T00:30:08.806Z,6.50
2018-07-28T00:30:41.499Z,6.65
2018-07-28T00:31:14.290Z,6.85
2018-07-28T00:31:46.881Z,5.92
2018-07-28T00:32:19.598Z,5.60
2018-07-28T00:32:52.334Z,5.75
2018-07-28T00:33:25.031Z,6.28
2018-07-28T00:33:57.778Z,6.40
2018-07-28T00:34:30.523Z,6.33
2018-07-28T00:35:03.663Z,6.15
2018-07-28T00:35:36.362Z,6.92
2018-07-28T00:36:09.130Z,5.97
2018-07-28T00:36:41.882Z,4.90
2018-07-28T00:37:14.570Z,6.40
2018-07-28T00:37:47.286Z,6.95
2018-07-28T00:38:19.958Z,6.87
2018-07-28T00:38:52.659Z,5.85
2018-07-28T00:39:25.362Z,6.25
2018-07-28T00:39:58.079Z,5.85
2018-07-28T00:40:30.763Z,6.08
2018-07-28T00:41:03.518Z,5.55
2018-07-28T00:41:36.255Z,6.20
2018-07-28T00:42:08.977Z,5.92
2018-07-28T00:42:41.670Z,5.72
2018-07-28T00:43:14.373Z,5.62
2018-07-28T00:43:47.090Z,6.00
2018-07-28T00:44:19.830Z,6.33
2018-07-28T00:44:52.574Z,5.62
2018-07-28T00:45:25.306Z,5.70
2018-07-28T00:45:58.003Z,5.70
2018-07-28T00:46:30.694Z,5.40
2018-07-28T00:47:03.433Z,6.50
2018-07-28T00:47:36.118Z,6.10
2018-07-28T00:48:08.818Z,6.10
2018-07-28T00:48:41.539Z,6.28
2018-07-28T00:49:14.258Z,6.85
2018-07-28T00:49:46.966Z,6.00
2018-07-28T00:50:19.727Z,6.42
2018-07-28T00:50:52.494Z,6.10
2018-07-28T00:51:25.246Z,5.80
2018-07-28T00:51:57.951Z,6.40
2018-07-28T00:52:30.650Z,6.53
2018-07-28T00:53:03.419Z,6.05
2018-07-28T00:53:36.162Z,6.90
2018-07-28T00:54:08.871Z,6.33
2018-07-28T00:54:41.599Z,4.60
2018-07-28T00:55:14.334Z,6.42
2018-07-28T00:55:47.089Z,6.45
2018-07-28T00:56:19.791Z,6.42
2018-07-28T00:56:52.522Z,5.97
2018-07-28T00:57:25.219Z,5.53
2018-07-28T00:57:57.950Z,6.47
2018-07-28T00:58:30.678Z,6.28
2018-07-28T00:59:03.478Z,6.60
2018-07-28T00:59:36.200Z,5.35
2018-07-28T01:00:09.188Z,6.15
2018-07-28T01:00:41.899Z,6.10
2018-07-28T01:01:14.574Z,6.37
2018-07-28T01:01:47.334Z,6.22
2018-07-28T01:02:20.007Z,5.80
2018-07-28T01:02:52.723Z,6.20
2018-07-28T01:03:25.438Z,6.58
2018-07-28T01:03:58.194Z,5.78
2018-07-28T01:04:30.971Z,6.05
2018-07-28T01:05:04.214Z,6.45
2018-07-28T01:05:36.974Z,5.62
2018-07-28T01:06:09.766Z,5.55
2018-07-28T01:06:42.538Z,6.22
2018-07-28T01:07:15.250Z,4.97
2018-07-28T01:07:47.938Z,5.83
2018-07-28T01:08:20.646Z,5.75
2018-07-28T01:08:53.394Z,5.92
2018-07-28T01:09:26.063Z,5.90
2018-07-28T01:09:58.766Z,5.55
2018-07-28T01:10:31.527Z,5.50
2018-07-28T01:11:04.302Z,5.85
2018-07-28T01:11:37.333Z,6.45
2018-07-28T01:12:10.086Z,6.03
2018-07-28T01:12:42.774Z,6.22
2018-07-28T01:13:15.499Z,7.17
2018-07-28T01:13:48.269Z,6.40
2018-07-28T01:14:20.974Z,6.15
2018-07-28T01:14:53.622Z,5.78
2018-07-28T01:15:26.347Z,6.70
2018-07-28T01:15:59.054Z,6.42
2018-07-28T01:16:31.776Z,6.75
2018-07-28T01:17:04.634Z,6.65
2018-07-28T01:17:37.559Z,5.90
2018-07-28T01:18:10.267Z,6.25
2018-07-28T01:18:43.083Z,6.10
2018-07-28T01:19:15.782Z,6.33
2018-07-28T01:19:48.486Z,7.58
2018-07-28T01:20:21.297Z,6.87
2018-07-28T01:20:54.070Z,6.45
2018-07-28T01:21:26.839Z,6.15
2018-07-28T01:21:59.582Z,5.90
2018-07-28T01:22:32.303Z,6.12
2018-07-28T01:23:05.159Z,6.45
2018-07-28T01:23:37.870Z,5.20
2018-07-28T01:24:10.586Z,6.70
2018-07-28T01:24:43.270Z,6.90
2018-07-28T01:25:16.015Z,5.80
2018-07-28T01:25:48.597Z,6.40
2018-07-28T01:26:21.334Z,6.60
2018-07-28T01:26:54.079Z,6.22
2018-07-28T01:27:26.741Z,7.15
2018-07-28T01:27:59.411Z,6.78
2018-07-28T01:28:32.170Z,6.28
2018-07-28T01:29:10.619Z,6.22
2018-07-28T01:29:43.306Z,6.87
2018-07-28T01:30:21.746Z,6.87
2018-07-28T01:30:54.434Z,6.45
2018-07-28T01:31:27.187Z,6.05
2018-07-28T01:31:59.831Z,7.05
2018-07-28T01:32:32.555Z,6.50
2018-07-28T01:33:05.848Z,7.60
2018-07-28T01:33:38.695Z,6.15
2018-07-28T01:34:11.402Z,6.33
2018-07-28T01:34:44.119Z,6.58
2018-07-28T01:35:16.822Z,6.33
2018-07-28T01:35:49.565Z,6.12
2018-07-28T01:36:22.321Z,6.35
2018-07-28T01:36:55.046Z,7.00
2018-07-28T01:37:27.734Z,6.08
2018-07-28T01:38:00.450Z,8.03
2018-07-28T01:38:33.171Z,7.50
2018-07-28T01:39:08.759Z,6.80
2018-07-28T01:39:41.470Z,7.58
2018-07-28T01:40:14.226Z,8.48
2018-07-28T01:40:46.941Z,7.87
2018-07-28T01:41:19.914Z,6.33
2018-07-28T01:41:52.643Z,7.25
2018-07-28T01:42:25.378Z,7.90
2018-07-28T01:42:58.082Z,7.40
2018-07-28T01:43:30.786Z,7.42
2018-07-28T01:44:03.617Z,7.62
2018-07-28T01:44:36.434Z,7.37
2018-07-28T01:45:09.642Z,6.65
2018-07-28T01:45:42.378Z,7.37
2018-07-28T01:46:15.054Z,7.90
2018-07-28T01:46:47.762Z,7.15
2018-07-28T01:47:20.482Z,7.33
2018-07-28T01:47:53.158Z,7.87
2018-07-28T01:48:25.850Z,8.43
2018-07-28T01:48:58.566Z,7.47
2018-07-28T01:49:31.327Z,8.40
2018-07-28T01:50:05.138Z,8.73
2018-07-28T01:50:37.818Z,7.75
2018-07-28T01:51:10.555Z,7.37
2018-07-28T01:51:43.255Z,7.15
2018-07-28T01:52:15.991Z,7.75
2018-07-28T01:52:48.702Z,7.65
2018-07-28T01:53:21.414Z,8.35
2018-07-28T01:53:54.110Z,7.72
2018-07-28T01:54:26.834Z,7.42
2018-07-28T01:54:59.531Z,8.75
2018-07-28T01:55:32.298Z,7.78
2018-07-28T01:56:05.434Z,7.67
2018-07-28T01:56:38.138Z,7.55
2018-07-28T01:57:10.894Z,8.65
2018-07-28T01:57:43.590Z,8.05
2018-07-28T01:58:16.294Z,8.93
2018-07-28T01:58:49.026Z,7.62
2018-07-28T01:59:21.730Z,7.40
2018-07-28T01:59:54.442Z,7.50
2018-07-28T02:00:27.266Z,7.12
2018-07-28T02:01:00.037Z,7.72
2018-07-28T02:01:32.790Z,7.20
2018-07-28T02:02:05.802Z,7.37
2018-07-28T02:02:38.506Z,7.60
2018-07-28T02:03:11.187Z,8.05
2018-07-28T02:03:44.034Z,7.42
2018-07-28T02:04:16.753Z,6.67
2018-07-28T02:04:49.491Z,7.65
2018-07-28T02:05:22.210Z,7.70
2018-07-28T02:05:54.926Z,7.92
2018-07-28T02:06:27.663Z,8.15
2018-07-28T02:07:00.414Z,6.85
2018-07-28T02:07:33.157Z,7.00
2018-07-28T02:08:05.855Z,7.37
2018-07-28T02:08:38.582Z,7.10
2018-07-28T02:09:11.865Z,6.53
2018-07-28T02:09:44.579Z,7.12
2018-07-28T02:10:17.342Z,6.30
2018-07-28T02:10:49.986Z,8.03
2018-07-28T02:11:22.955Z,7.05
2018-07-28T02:11:55.710Z,7.45
2018-07-28T02:12:28.453Z,7.67
2018-07-28T02:13:01.168Z,7.80
2018-07-28T02:13:33.878Z,7.58
2018-07-28T02:14:06.910Z,7.78
2018-07-28T02:14:39.705Z,6.95
2018-07-28T02:15:12.482Z,7.17
2018-07-28T02:15:45.204Z,6.47
2018-07-28T02:16:17.942Z,7.97
2018-07-28T02:16:50.676Z,7.15
2018-07-28T02:17:23.417Z,7.37
2018-07-28T02:17:56.170Z,7.25
2018-07-28T02:18:28.886Z,7.42
2018-07-28T02:19:01.611Z,7.58
2018-07-28T02:19:34.299Z,6.95
2018-07-28T02:20:07.833Z,5.92
2018-07-28T02:20:40.511Z,6.95
2018-07-28T02:21:13.208Z,7.58
2018-07-28T02:21:45.909Z,7.37
2018-07-28T02:22:18.631Z,7.75
2018-07-28T02:22:51.602Z,8.18
2018-07-28T02:23:24.310Z,7.25
2018-07-28T02:23:57.017Z,7.08
2018-07-28T02:24:30.035Z,6.15
2018-07-28T02:25:02.766Z,5.92
2018-07-28T02:25:35.483Z,6.58
2018-07-28T02:26:08.170Z,5.92
2018-07-28T02:26:40.887Z,6.15
2018-07-28T02:27:13.619Z,6.30
2018-07-28T02:27:46.338Z,6.22
2018-07-28T02:28:19.090Z,7.05
2018-07-28T02:28:51.822Z,6.85
2018-07-28T02:29:24.510Z,5.85
2018-07-28T02:29:57.194Z,5.85
2018-07-28T02:30:29.939Z,5.78
2018-07-28T02:31:02.655Z,5.25
2018-07-28T02:31:35.543Z,6.97
2018-07-28T02:32:08.280Z,5.67
2018-07-28T02:32:41.000Z,6.60
2018-07-28T02:33:13.770Z,4.33
2018-07-28T02:33:46.570Z,4.95
2018-07-28T02:34:19.287Z,5.15
2018-07-28T02:34:52.149Z,4.80
2018-07-28T02:35:24.871Z,4.42
2018-07-28T02:35:57.562Z,5.78
2018-07-28T02:36:30.274Z,5.67
2018-07-28T02:37:03.046Z,5.70
2018-07-28T02:37:35.811Z,5.40
2018-07-28T02:38:08.526Z,5.75
2018-07-28T02:38:41.237Z,5.90
2018-07-28T02:39:13.995Z,5.58
2018-07-28T02:39:46.703Z,5.97
2018-07-28T02:40:19.390Z,5.40
2018-07-28T02:40:51.997Z,6.10
2018-07-28T02:41:24.674Z,6.55
2018-07-28T02:41:57.402Z,6.67
2018-07-28T02:42:30.131Z,6.55
2018-07-28T02:43:02.777Z,7.10
2018-07-28T02:43:35.481Z,6.20
2018-07-28T02:44:08.262Z,6.45
2018-07-28T02:44:40.971Z,6.58
2018-07-28T02:45:13.718Z,6.08
2018-07-28T02:45:46.430Z,5.53
2018-07-28T02:46:19.142Z,6.00
2018-07-28T02:46:51.907Z,5.62
2018-07-28T02:47:24.611Z,6.30
2018-07-28T02:47:57.330Z,5.17
2018-07-28T02:48:30.070Z,5.60
2018-07-28T02:49:02.894Z,4.95
2018-07-28T02:49:35.571Z,5.75
2018-07-28T02:50:08.350Z,6.62
2018-07-28T02:50:41.146Z,5.12
2018-07-28T02:51:13.857Z,6.12
2018-07-28T02:51:46.502Z,6.75
2018-07-28T02:52:19.179Z,6.35
2018-07-28T02:52:52.210Z,6.25
2018-07-28T02:53:24.882Z,6.30
2018-07-28T02:53:57.602Z,6.70
2018-07-28T02:54:30.182Z,6.47
2018-07-28T02:55:02.943Z,5.70
2018-07-28T02:55:35.655Z,6.85
2018-07-28T02:56:08.387Z,6.60
2018-07-28T02:56:41.005Z,5.65
2018-07-28T02:57:13.710Z,6.20
2018-07-28T02:57:46.383Z,5.40
2018-07-28T02:58:19.091Z,5.17
2018-07-28T02:58:51.775Z,5.85
2018-07-28T02:59:24.490Z,5.50
2018-07-28T02:59:57.242Z,5.03
2018-07-28T03:00:29.927Z,5.58
2018-07-28T03:01:02.728Z,4.95
2018-07-28T03:01:35.447Z,4.45
2018-07-28T03:02:08.199Z,4.37
2018-07-28T03:02:40.863Z,5.15
2018-07-28T03:03:13.591Z,5.85
2018-07-28T03:03:46.318Z,5.37
2018-07-28T03:04:19.046Z,5.17
2018-07-28T03:04:51.694Z,5.92
2018-07-28T03:05:24.431Z,5.62
2018-07-28T03:05:57.130Z,6.00
2018-07-28T03:06:29.812Z,5.62
2018-07-28T03:07:02.467Z,5.42
2018-07-28T03:07:35.129Z,5.35
2018-07-28T03:08:08.235Z,5.00
2018-07-28T03:08:40.927Z,4.80
2018-07-28T03:09:13.643Z,5.50
2018-07-28T03:09:46.336Z,5.53
2018-07-28T03:10:19.034Z,5.70
2018-07-28T03:10:51.706Z,5.62
2018-07-28T03:11:24.403Z,5.83
2018-07-28T03:11:57.162Z,5.60
2018-07-28T03:12:29.861Z,5.17
2018-07-28T03:13:02.634Z,5.20
2018-07-28T03:13:35.354Z,6.40
2018-07-28T03:14:08.231Z,5.10
2018-07-28T03:14:40.971Z,5.15
2018-07-28T03:15:29.962Z,5.67
2018-07-28T03:16:07.182Z,5.33
2018-07-28T03:16:39.899Z,5.78
2018-07-28T03:17:12.579Z,5.62
2018-07-28T03:17:45.295Z,5.53
2018-07-28T03:18:17.962Z,5.50
2018-07-28T03:18:50.671Z,5.40
2018-07-28T03:19:23.375Z,5.10
2018-07-28T03:19:56.079Z,5.15
2018-07-28T03:20:29.015Z,5.35
2018-07-28T03:21:01.692Z,5.33
2018-07-28T03:21:34.414Z,4.20
2018-07-28T03:22:07.346Z,4.65
2018-07-28T03:22:40.043Z,6.35
2018-07-28T03:23:12.779Z,5.60
2018-07-28T03:23:45.524Z,5.62
2018-07-28T03:24:18.229Z,5.87
2018-07-28T03:24:50.926Z,5.37
2018-07-28T03:25:23.930Z,7.08
2018-07-28T03:25:56.590Z,6.35
2018-07-28T03:26:29.304Z,6.55
2018-07-28T03:27:02.002Z,5.40
2018-07-28T03:27:34.697Z,5.37
2018-07-28T03:28:07.438Z,6.20
2018-07-28T03:28:40.098Z,5.72
2018-07-28T03:29:12.779Z,5.72
2018-07-28T03:29:45.435Z,6.53
2018-07-28T03:30:18.154Z,6.25
2018-07-28T03:30:50.878Z,5.70
2018-07-28T03:31:23.653Z,5.80
2018-07-28T03:31:56.362Z,4.85
2018-07-28T03:32:29.026Z,5.65
2018-07-28T03:33:01.734Z,4.87
2018-07-28T03:33:34.466Z,5.62
2018-07-28T03:34:07.133Z,6.22
2018-07-28T03:34:39.794Z,6.50
2018-07-28T03:35:12.675Z,6.83
2018-07-28T03:35:45.398Z,5.90
2018-07-28T03:36:18.317Z,5.92
2018-07-28T03:36:51.041Z,6.08
2018-07-28T03:37:23.694Z,4.67
2018-07-28T03:37:56.338Z,5.47
2018-07-28T03:38:29.010Z,5.70
2018-07-28T03:39:01.700Z,6.03
2018-07-28T03:39:34.426Z,6.03
2018-07-28T03:40:07.191Z,5.95
2018-07-28T03:40:39.930Z,5.58
2018-07-28T03:41:12.627Z,6.00
2018-07-28T03:41:45.230Z,5.28
2018-07-28T03:42:17.937Z,6.20
2018-07-28T03:42:50.674Z,6.30
2018-07-28T03:43:23.321Z,5.85
2018-07-28T03:43:56.053Z,5.87
2018-07-28T03:44:28.765Z,6.45
2018-07-28T03:45:01.563Z,5.90
2018-07-28T03:45:34.290Z,5.40
2018-07-28T03:46:07.114Z,5.67
2018-07-28T03:46:39.778Z,5.15
2018-07-28T03:47:12.489Z,5.53
2018-07-28T03:47:45.263Z,5.83
2018-07-28T03:48:17.975Z,6.42
2018-07-28T03:48:50.674Z,6.10
2018-07-28T03:49:23.720Z,7.00
2018-07-28T03:49:56.467Z,6.67
2018-07-28T03:50:29.174Z,6.55
2018-07-28T03:51:01.815Z,6.47
2018-07-28T03:51:34.506Z,6.00
2018-07-28T03:52:07.162Z,6.72
2018-07-28T03:52:39.902Z,5.95
2018-07-28T03:53:12.630Z,6.20
2018-07-28T03:53:45.310Z,6.15
2018-07-28T03:54:18.039Z,6.05
2018-07-28T03:54:50.754Z,5.90
2018-07-28T03:55:23.579Z,6.75
2018-07-28T03:55:56.293Z,6.10
2018-07-28T03:56:29.006Z,7.10
2018-07-28T03:57:01.688Z,5.70
2018-07-28T03:57:34.414Z,6.20
2018-07-28T03:58:07.102Z,6.08
2018-07-28T03:58:39.810Z,6.85
2018-07-28T03:59:12.478Z,6.53
2018-07-28T03:59:45.171Z,5.90
2018-07-28T04:00:17.938Z,6.55
2018-07-28T04:00:50.674Z,5.92
2018-07-28T04:01:23.442Z,6.30
2018-07-28T04:01:56.127Z,5.58
2018-07-28T04:02:28.818Z,5.80
2018-07-28T04:03:01.526Z,5.90
2018-07-28T04:03:34.230Z,5.87
2018-07-28T04:04:06.965Z,5.55
2018-07-28T04:04:39.640Z,5.83
2018-07-28T04:05:12.401Z,6.65
2018-07-28T04:05:45.091Z,6.15
2018-07-28T04:06:17.814Z,5.92
2018-07-28T04:06:50.526Z,5.75
2018-07-28T04:07:23.270Z,6.25
2018-07-28T04:07:55.970Z,7.00
2018-07-28T04:08:28.683Z,6.22
2018-07-28T04:09:01.389Z,6.95
2018-07-28T04:09:34.077Z,6.12
2018-07-28T04:10:07.528Z,5.97
2018-07-28T04:10:40.270Z,7.37
2018-07-28T04:11:13.066Z,6.22
2018-07-28T04:11:45.766Z,6.53
2018-07-28T04:12:18.438Z,7.20
2018-07-28T04:12:51.118Z,5.85
2018-07-28T04:13:23.902Z,7.12
2018-07-28T04:13:56.628Z,6.45
2018-07-28T04:14:29.299Z,6.75
2018-07-28T04:15:02.007Z,7.35
2018-07-28T04:15:34.747Z,7.30
2018-07-28T04:16:07.522Z,7.47
2018-07-28T04:16:40.231Z,7.92
2018-07-28T04:17:12.958Z,8.55
2018-07-28T04:17:52.091Z,8.30
2018-07-28T04:18:24.786Z,7.35
2018-07-28T04:18:57.534Z,7.60
2018-07-28T04:19:30.202Z,6.83
2018-07-28T04:20:03.307Z,7.05
2018-07-28T04:20:35.974Z,6.10
2018-07-28T04:21:08.670Z,7.37
2018-07-28T04:21:41.368Z,6.97
2018-07-28T04:22:14.102Z,7.60
2018-07-28T04:22:46.838Z,7.85
2018-07-28T04:23:19.586Z,8.58
2018-07-28T04:23:52.294Z,8.88
2018-07-28T04:24:24.982Z,9.18
2018-07-28T04:24:57.670Z,9.70
2018-07-28T04:25:30.322Z,9.03
2018-07-28T04:26:03.094Z,8.40
2018-07-28T04:26:35.806Z,9.48
2018-07-28T04:27:08.512Z,8.38
2018-07-28T04:27:41.211Z,10.68
2018-07-28T04:28:13.925Z,8.35
2018-07-28T04:28:46.627Z,9.30
2018-07-28T04:29:19.307Z,10.13
2018-07-28T04:29:51.963Z,8.53
2018-07-28T04:30:24.643Z,9.10
2018-07-28T04:30:57.290Z,8.50
2018-07-28T04:31:29.978Z,9.83
2018-07-28T04:32:02.711Z,7.78
2018-07-28T04:32:35.730Z,8.60
2018-07-28T04:33:08.519Z,9.60
2018-07-28T04:33:41.174Z,9.00
2018-07-28T04:34:13.834Z,8.95
2018-07-28T04:34:46.494Z,8.78
2018-07-28T04:35:19.302Z,9.65
2018-07-28T04:35:51.934Z,9.13
2018-07-28T04:36:24.621Z,10.23
2018-07-28T04:36:57.358Z,10.13
2018-07-28T04:37:30.055Z,10.50
2018-07-28T04:38:02.686Z,10.60
2018-07-28T04:38:35.350Z,10.35
2018-07-28T04:39:10.342Z,10.55
2018-07-28T04:39:43.082Z,11.05
2018-07-28T04:40:15.814Z,12.53
2018-07-28T04:40:48.568Z,11.70
2018-07-28T04:41:21.276Z,12.23
2018-07-28T04:41:54.012Z,11.50
2018-07-28T04:42:26.714Z,13.13
2018-07-28T04:42:59.393Z,12.25
2018-07-28T04:43:32.058Z,10.82
2018-07-28T04:44:04.861Z,11.00
2018-07-28T04:44:37.529Z,11.10
2018-07-28T04:45:10.209Z,11.18
2018-07-28T04:45:42.914Z,10.70
2018-07-28T04:46:15.607Z,11.60
2018-07-28T04:46:48.299Z,11.75
2018-07-28T04:47:20.950Z,10.85
2018-07-28T04:47:53.591Z,11.38
2018-07-28T04:48:26.278Z,11.88
2018-07-28T04:48:58.954Z,11.90
2018-07-28T04:49:31.643Z,11.25
2018-07-28T04:50:04.718Z,11.70
2018-07-28T04:50:37.378Z,11.75
2018-07-28T04:51:10.039Z,11.08
2018-07-28T04:51:42.754Z,11.55
2018-07-28T04:52:15.398Z,12.58
2018-07-28T04:52:48.058Z,11.73
2018-07-28T04:53:20.795Z,11.70
2018-07-28T04:53:53.511Z,11.70
2018-07-28T04:54:26.199Z,13.10
2018-07-28T04:54:59.090Z,11.53
2018-07-28T04:55:31.791Z,12.65
2018-07-28T04:56:05.198Z,12.78
2018-07-28T04:56:37.870Z,12.40
2018-07-28T04:57:10.773Z,12.50
2018-07-28T04:57:43.476Z,12.33
2018-07-28T04:58:16.178Z,11.85
2018-07-28T04:58:48.859Z,12.73
2018-07-28T04:59:21.577Z,12.05
2018-07-28T04:59:54.939Z,12.30
2018-07-28T05:00:27.703Z,12.07
2018-07-28T05:01:00.447Z,11.73
2018-07-28T05:01:33.174Z,12.30
2018-07-28T05:02:05.838Z,12.40
2018-07-28T05:02:38.511Z,12.05
2018-07-28T05:03:11.222Z,11.57
2018-07-28T05:03:43.938Z,12.95
2018-07-28T05:04:16.616Z,12.20
2018-07-28T05:04:49.274Z,11.48
2018-07-28T05:05:21.923Z,12.68
2018-07-28T05:05:54.738Z,12.53
2018-07-28T05:06:27.386Z,11.38
2018-07-28T05:07:00.126Z,13.10
2018-07-28T05:07:33.018Z,12.20
2018-07-28T05:08:05.610Z,11.70
2018-07-28T05:08:38.311Z,12.45
2018-07-28T05:09:11.154Z,12.45
2018-07-28T05:09:43.855Z,11.22
2018-07-28T05:10:16.546Z,11.75
2018-07-28T05:10:49.274Z,12.10
2018-07-28T05:11:21.962Z,11.93
2018-07-28T05:11:54.647Z,12.93
2018-07-28T05:12:27.388Z,11.53
2018-07-28T05:13:00.123Z,11.68
2018-07-28T05:13:32.810Z,11.75
2018-07-28T05:14:05.502Z,11.33
2018-07-28T05:14:38.201Z,12.95
2018-07-28T05:15:10.894Z,12.45
2018-07-28T05:15:43.586Z,11.10
2018-07-28T05:16:16.238Z,11.50
2018-07-28T05:16:48.958Z,12.53
2018-07-28T05:17:21.976Z,11.30
2018-07-28T05:17:54.703Z,11.60
2018-07-28T05:18:27.390Z,12.20
2018-07-28T05:19:00.094Z,12.43
2018-07-28T05:19:32.767Z,11.00
2018-07-28T05:20:05.481Z,11.05
2018-07-28T05:20:38.183Z,12.00
2018-07-28T05:21:10.940Z,13.13
2018-07-28T05:21:43.602Z,11.50
2018-07-28T05:22:16.282Z,11.05
2018-07-28T05:22:48.998Z,11.68
2018-07-28T05:23:21.686Z,11.83
2018-07-28T05:23:54.339Z,11.83
2018-07-28T05:24:27.007Z,11.03
2018-07-28T05:24:59.650Z,12.15
2018-07-28T05:25:32.358Z,11.90
2018-07-28T05:26:05.115Z,11.80
2018-07-28T05:26:37.782Z,11.08
2018-07-28T05:27:10.427Z,12.03
2018-07-28T05:27:43.165Z,11.48
2018-07-28T05:28:15.863Z,13.05
2018-07-28T05:28:48.547Z,12.40
2018-07-28T05:29:21.239Z,11.90
2018-07-28T05:29:53.931Z,11.88
2018-07-28T05:30:26.662Z,12.55
2018-07-28T05:30:59.542Z,11.93
2018-07-28T05:31:32.200Z,11.78
2018-07-28T05:32:04.895Z,12.45
2018-07-28T05:32:37.595Z,10.70
2018-07-28T05:33:10.242Z,12.00
2018-07-28T05:33:42.931Z,12.28
2018-07-28T05:34:15.646Z,11.63
2018-07-28T05:34:48.363Z,12.07
2018-07-28T05:35:21.035Z,13.43
2018-07-28T05:35:53.994Z,11.30
2018-07-28T05:36:26.682Z,10.80
2018-07-28T05:36:59.636Z,11.35
2018-07-28T05:37:32.346Z,12.82
2018-07-28T05:38:05.154Z,11.70
2018-07-28T05:38:37.847Z,10.60
2018-07-28T05:39:11.861Z,11.40
2018-07-28T05:39:44.601Z,11.00
2018-07-28T05:40:17.304Z,10.53
2018-07-28T05:40:49.978Z,10.85
2018-07-28T05:41:22.658Z,11.65
2018-07-28T05:41:55.315Z,11.48
2018-07-28T05:42:28.033Z,10.08
2018-07-28T05:43:00.670Z,10.90
2018-07-28T05:43:33.358Z,10.65
2018-07-28T05:44:06.082Z,9.88
2018-07-28T05:44:38.786Z,11.00
2018-07-28T05:45:11.498Z,10.05
2018-07-28T05:45:44.246Z,10.25
2018-07-28T05:46:16.942Z,10.05
2018-07-28T05:46:49.598Z,10.07
2018-07-28T05:47:22.298Z,11.50
2018-07-28T05:47:55.012Z,10.15
2018-07-28T05:48:27.719Z,10.28
2018-07-28T05:49:00.426Z,10.90
2018-07-28T05:49:33.133Z,9.87
2018-07-28T05:50:06.759Z,10.00
2018-07-28T05:50:39.462Z,10.20
2018-07-28T05:51:12.264Z,9.03
2018-07-28T05:51:45.002Z,10.30
2018-07-28T05:52:17.702Z,9.03
2018-07-28T05:52:50.374Z,10.20
2018-07-28T05:53:23.070Z,10.13
2018-07-28T05:53:55.770Z,9.37
2018-07-28T05:54:28.467Z,9.90
2018-07-28T05:55:01.223Z,9.13
2018-07-28T05:55:33.894Z,10.33
2018-07-28T05:56:08.447Z,9.90
2018-07-28T05:56:41.126Z,9.80
2018-07-28T05:57:13.831Z,10.60
2018-07-28T05:57:46.519Z,9.87
2018-07-28T05:58:19.230Z,9.43
2018-07-28T05:58:52.414Z,9.80
2018-07-28T05:59:25.176Z,10.00
2018-07-28T05:59:57.838Z,10.13
2018-07-28T06:00:30.990Z,10.20
2018-07-28T06:01:03.886Z,9.67
2018-07-28T06:01:36.594Z,8.97
2018-07-28T06:02:09.315Z,10.50
2018-07-28T06:02:42.294Z,9.90
2018-07-28T06:03:14.939Z,9.50
2018-07-28T06:03:47.598Z,11.03
2018-07-28T06:04:20.323Z,10.17
2018-07-28T06:04:53.014Z,10.13
2018-07-28T06:05:25.739Z,9.27
2018-07-28T06:05:58.486Z,9.60
2018-07-28T06:06:31.173Z,9.13
2018-07-28T06:07:04.106Z,10.10
2018-07-28T06:07:36.930Z,9.47
2018-07-28T06:08:09.578Z,11.30
2018-07-28T06:08:42.222Z,10.40
2018-07-28T06:09:14.911Z,10.70
2018-07-28T06:09:47.614Z,9.50
2018-07-28T06:10:20.295Z,9.10
2018-07-28T06:10:53.081Z,10.03
2018-07-28T06:11:25.750Z,9.23
2018-07-28T06:11:58.498Z,9.60
2018-07-28T06:12:31.198Z,9.37
2018-07-28T06:13:03.958Z,9.77
2018-07-28T06:13:36.666Z,9.93
2018-07-28T06:14:09.438Z,9.27
2018-07-28T06:14:42.051Z,10.20
2018-07-28T06:15:14.750Z,8.67
2018-07-28T06:15:47.403Z,9.27
2018-07-28T06:16:20.108Z,8.43
2018-07-28T06:16:52.862Z,9.33
2018-07-28T06:17:25.554Z,9.00
2018-07-28T06:17:58.247Z,10.20
2018-07-28T06:18:30.878Z,10.80
2018-07-28T06:19:03.615Z,10.00
2018-07-28T06:19:36.315Z,9.90
2018-07-28T06:20:09.104Z,9.90
2018-07-28T06:20:41.786Z,9.07
2018-07-28T06:21:14.452Z,9.43
2018-07-28T06:21:47.114Z,8.60
2018-07-28T06:22:19.811Z,9.03
2018-07-28T06:22:52.606Z,9.63
2018-07-28T06:23:26.058Z,9.50
2018-07-28T06:23:58.712Z,9.17
2018-07-28T06:24:31.358Z,10.00
2018-07-28T06:25:04.954Z,9.00
2018-07-28T06:25:37.599Z,8.90
2018-07-28T06:26:10.254Z,9.80
2018-07-28T06:26:42.950Z,10.47
2018-07-28T06:27:15.638Z,9.63
2018-07-28T06:27:48.348Z,9.30
2018-07-28T06:28:20.978Z,9.37
2018-07-28T06:28:53.637Z,9.83
2018-07-28T06:29:26.287Z,9.60
2018-07-28T06:29:58.958Z,9.13
2018-07-28T06:30:31.634Z,9.53
2018-07-28T06:31:04.307Z,9.00
2018-07-28T06:31:36.994Z,10.00
2018-07-28T06:32:10.174Z,9.00
2018-07-28T06:32:42.854Z,9.23
2018-07-28T06:33:15.538Z,9.67
2018-07-28T06:33:48.248Z,9.50
2018-07-28T06:34:20.943Z,9.97
2018-07-28T06:34:53.594Z,8.60
2018-07-28T06:35:26.254Z,9.60
2018-07-28T06:35:58.895Z,9.53
2018-07-28T06:36:31.605Z,10.33
2018-07-28T06:37:04.238Z,9.17
2018-07-28T06:37:37.299Z,9.77
2018-07-28T06:38:09.935Z,9.03
2018-07-28T06:38:42.611Z,9.23
2018-07-28T06:39:15.250Z,9.20
2018-07-28T06:39:47.880Z,9.00
2018-07-28T06:40:20.542Z,9.13
2018-07-28T06:40:53.219Z,9.93
2018-07-28T06:41:25.927Z,8.67
2018-07-28T06:41:58.581Z,9.17
2018-07-28T06:42:32.178Z,8.93
2018-07-28T06:43:05.026Z,8.60
2018-07-28T06:43:37.691Z,9.13
2018-07-28T06:44:10.274Z,8.47
2018-07-28T06:44:42.922Z,9.10
2018-07-28T06:45:15.594Z,8.50
2018-07-28T06:45:48.392Z,8.57
2018-07-28T06:46:21.055Z,9.47
2018-07-28T06:46:53.759Z,8.30
2018-07-28T06:47:26.392Z,8.10
2018-07-28T06:47:59.059Z,8.40
2018-07-28T06:48:31.767Z,8.07
2018-07-28T06:49:05.030Z,8.50
2018-07-28T06:49:37.707Z,7.80
2018-07-28T06:50:10.339Z,9.27
2018-07-28T06:50:43.051Z,8.70
2018-07-28T06:51:15.707Z,8.77
2018-07-28T06:51:48.389Z,8.70
2018-07-28T06:52:21.072Z,8.30
2018-07-28T06:52:53.738Z,9.13
2018-07-28T06:53:26.427Z,8.20
2018-07-28T06:53:59.102Z,8.47
2018-07-28T06:54:31.910Z,7.90
2018-07-28T06:55:05.154Z,8.00
2018-07-28T06:55:37.825Z,8.13
2018-07-28T06:56:10.515Z,8.30
2018-07-28T06:56:43.262Z,7.60
2018-07-28T06:57:15.924Z,7.60
2018-07-28T06:57:48.682Z,7.80
2018-07-28T06:58:21.397Z,7.70
2018-07-28T06:58:54.079Z,9.10
2018-07-28T06:59:26.738Z,7.93
2018-07-28T06:59:59.418Z,7.73
2018-07-28T07:00:32.178Z,8.00
2018-07-28T07:01:04.879Z,8.03
2018-07-28T07:01:37.657Z,8.30
2018-07-28T07:02:10.328Z,8.57
2018-07-28T07:02:43.006Z,7.77
2018-07-28T07:03:15.670Z,7.60
2018-07-28T07:03:48.784Z,7.07
2018-07-28T07:04:21.474Z,7.10
2018-07-28T07:04:54.102Z,7.97
2018-07-28T07:05:26.777Z,7.80
2018-07-28T07:05:59.442Z,7.23
2018-07-28T07:06:32.110Z,7.20
2018-07-28T07:07:04.842Z,8.00
2018-07-28T07:07:37.550Z,7.90
2018-07-28T07:08:10.198Z,7.43
2018-07-28T07:08:42.862Z,8.20
2018-07-28T07:09:15.502Z,6.80
2018-07-28T07:09:48.229Z,7.57
2018-07-28T07:10:20.881Z,7.73
2018-07-28T07:10:53.614Z,7.17
2018-07-28T07:11:26.298Z,7.27
2018-07-28T07:11:58.974Z,6.77
2018-07-28T07:12:31.694Z,7.00
2018-07-28T07:13:04.410Z,7.20
2018-07-28T07:13:37.090Z,7.63
2018-07-28T07:14:09.774Z,7.57